createdAt,value
2022-08-20T00:01:48.050Z,15.27
2022-08-20T00:04:16.016Z,14.90
2022-08-20T00:06:43.957Z,13.83
2022-08-20T00:09:11.862Z,14.33
2022-08-20T00:11:41.254Z,15.07
2022-08-20T00:14:09.214Z,16.20
2022-08-20T00:16:39.242Z,16.63
2022-08-20T00:19:09.194Z,17.07
2022-08-20T00:21:37.885Z,16.93
2022-08-20T00:24:07.021Z,16.97
2022-08-20T00:26:35.222Z,16.97
2022-08-20T00:29:05.925Z,17.03
2022-08-20T00:31:33.890Z,17.93
2022-08-20T00:34:01.697Z,18.47
2022-08-20T00:36:32.377Z,18.53
2022-08-20T00:39:00.940Z,18.37
2022-08-20T00:41:30.919Z,17.40
2022-08-20T00:44:10.124Z,17.63
2022-08-20T00:46:39.060Z,17.70
2022-08-20T00:49:08.858Z,17.13
2022-08-20T00:51:41.029Z,18.00
2022-08-20T00:54:15.211Z,17.97
2022-08-20T00:56:44.880Z,19.73
2022-08-20T00:59:21.569Z,19.60
2022-08-20T01:01:55.832Z,19.63
2022-08-20T01:04:26.175Z,21.10
2022-08-20T01:06:54.225Z,19.57
2022-08-20T01:09:33.341Z,20.53
2022-08-20T01:12:10.909Z,19.57
2022-08-20T01:14:45.651Z,20.33
2022-08-20T01:17:17.516Z,20.13
2022-08-20T01:19:48.591Z,19.87
2022-08-20T01:22:44.322Z,19.43
2022-08-20T01:25:20.415Z,18.57
2022-08-20T01:27:53.241Z,19.47
2022-08-20T01:30:23.642Z,18.60
2022-08-20T01:32:51.427Z,19.27
2022-08-20T01:35:23.030Z,19.40
2022-08-20T01:37:51.204Z,19.17
2022-08-20T01:40:36.686Z,19.57
2022-08-20T01:43:06.460Z,19.20
2022-08-20T01:45:34.639Z,18.67
2022-08-20T01:48:02.478Z,17.47
2022-08-20T01:50:35.771Z,18.17
2022-08-20T01:53:11.890Z,18.70
2022-08-20T01:55:39.785Z,19.30
2022-08-20T01:58:08.970Z,19.43
2022-08-20T02:00:37.120Z,19.63
2022-08-20T02:03:06.139Z,19.90
2022-08-20T02:05:34.349Z,19.60
2022-08-20T02:08:02.261Z,19.37
2022-08-20T02:10:31.759Z,18.17
2022-08-20T02:13:00.157Z,17.10
2022-08-20T02:15:34.760Z,16.83
2022-08-20T02:18:08.182Z,14.53
2022-08-20T02:20:37.173Z,12.23
2022-08-20T02:23:06.421Z,12.20
2022-08-20T02:25:37.642Z,11.07
2022-08-20T02:28:08.196Z,11.33
2022-08-20T02:30:40.088Z,10.87
2022-08-20T02:33:11.052Z,9.80
2022-08-20T02:35:40.326Z,8.73
2022-08-20T02:38:08.363Z,10.07
2022-08-20T02:40:36.378Z,10.23
2022-08-20T02:43:05.070Z,10.33
2022-08-20T02:45:43.788Z,9.93
2022-08-20T02:48:22.970Z,10.33
2022-08-20T02:50:54.161Z,11.67
2022-08-20T02:53:22.394Z,11.83
2022-08-20T02:55:50.457Z,13.17
2022-08-20T02:58:19.608Z,12.80
2022-08-20T03:00:47.936Z,12.23
2022-08-20T03:03:20.333Z,12.87
2022-08-20T03:05:48.146Z,13.27
2022-08-20T03:08:16.910Z,13.50
2022-08-20T03:10:47.107Z,15.33
2022-08-20T03:13:16.551Z,15.30
2022-08-20T03:15:46.681Z,16.40
2022-08-20T03:18:15.050Z,17.17
2022-08-20T03:20:45.969Z,17.93
2022-08-20T03:23:14.206Z,17.23
2022-08-20T03:25:42.140Z,17.13
2022-08-20T03:28:10.283Z,17.87
2022-08-20T03:30:38.513Z,19.20
2022-08-20T03:33:06.618Z,19.33
2022-08-20T03:35:35.037Z,20.40
2022-08-20T03:38:08.348Z,20.17
2022-08-20T03:40:36.597Z,21.60
2022-08-20T03:43:05.753Z,22.43
2022-08-20T03:45:33.516Z,23.20
2022-08-20T03:48:01.705Z,21.83
2022-08-20T03:50:32.636Z,21.20
2022-08-20T03:53:01.352Z,22.77
2022-08-20T03:55:32.118Z,23.57
2022-08-20T03:58:06.231Z,22.50
2022-08-20T04:00:37.168Z,24.50
2022-08-20T04:03:05.731Z,21.73
2022-08-20T04:05:34.359Z,23.63
2022-08-20T04:08:03.662Z,24.13
2022-08-20T04:10:33.306Z,23.23
2022-08-20T04:13:01.732Z,22.23
2022-08-20T04:15:29.806Z,23.30
2022-08-20T04:17:59.607Z,22.63
2022-08-20T04:20:28.337Z,23.53
2022-08-20T04:22:58.497Z,23.17
2022-08-20T04:25:28.544Z,23.93
2022-08-20T04:27:59.417Z,22.00
2022-08-20T04:30:28.002Z,19.83
2022-08-20T04:32:56.593Z,22.43
2022-08-20T04:35:25.369Z,22.70
2022-08-20T04:37:59.372Z,21.97
2022-08-20T04:40:45.049Z,21.53
2022-08-20T04:43:14.558Z,19.37
2022-08-20T04:45:43.371Z,20.97
2022-08-20T04:48:14.887Z,21.73
2022-08-20T04:50:46.962Z,20.97
2022-08-20T04:53:22.707Z,21.87
2022-08-20T04:55:54.871Z,20.87
2022-08-20T04:58:27.362Z,19.53
2022-08-20T05:00:56.983Z,18.90
2022-08-20T05:03:30.120Z,21.43
2022-08-20T05:05:58.627Z,20.10
2022-08-20T05:08:27.160Z,20.40
2022-08-20T05:11:06.787Z,18.97
2022-08-20T05:13:47.023Z,19.87
2022-08-20T05:16:17.561Z,19.23
2022-08-20T05:18:46.335Z,18.13
2022-08-20T05:21:20.748Z,19.30
2022-08-20T05:23:49.395Z,18.30
2022-08-20T05:26:20.250Z,19.03
2022-08-20T05:28:57.991Z,18.87
2022-08-20T05:31:31.344Z,18.43
2022-08-20T05:34:00.484Z,19.33
2022-08-20T05:36:28.249Z,17.93
2022-08-20T05:38:55.984Z,18.43
2022-08-20T05:41:28.708Z,19.60
2022-08-20T05:44:01.753Z,18.20
2022-08-20T05:46:31.062Z,19.57
2022-08-20T05:48:59.940Z,20.00
2022-08-20T05:51:29.081Z,17.73
2022-08-20T05:53:58.319Z,18.17
2022-08-20T05:56:31.249Z,17.57
2022-08-20T05:59:03.796Z,18.20
2022-08-20T06:01:32.255Z,17.67
2022-08-20T06:04:18.036Z,17.20
2022-08-20T06:06:47.625Z,17.77
2022-08-20T06:09:30.561Z,18.47
2022-08-20T06:12:00.482Z,18.30
2022-08-20T06:14:30.120Z,17.80
2022-08-20T06:17:04.783Z,18.27
2022-08-20T06:19:33.679Z,18.70
2022-08-20T06:22:02.072Z,19.07
2022-08-20T06:24:31.077Z,19.53
2022-08-20T06:26:59.962Z,18.70
2022-08-20T06:29:29.787Z,19.23
2022-08-20T06:31:58.070Z,19.30
2022-08-20T06:34:28.305Z,18.33
2022-08-20T06:36:59.458Z,18.60
2022-08-20T06:39:34.194Z,17.80
2022-08-20T06:42:01.925Z,20.07
2022-08-20T06:44:31.750Z,18.17
2022-08-20T06:47:02.520Z,19.87
2022-08-20T06:49:34.069Z,19.60
2022-08-20T06:52:03.459Z,18.33
2022-08-20T06:54:32.470Z,19.50
2022-08-20T06:57:00.264Z,20.00
2022-08-20T06:59:28.068Z,18.87
2022-08-20T07:01:57.375Z,19.87
2022-08-20T07:04:26.604Z,19.87
2022-08-20T07:06:54.857Z,20.13
2022-08-20T07:09:23.189Z,19.97
2022-08-20T07:11:51.277Z,19.27
2022-08-20T07:14:19.695Z,26.13
2022-08-20T07:16:48.067Z,22.80
2022-08-20T07:19:17.816Z,19.63
2022-08-20T07:21:47.603Z,19.60
2022-08-20T07:24:15.380Z,20.63
2022-08-20T07:26:43.776Z,19.20
2022-08-20T07:29:11.501Z,20.43
2022-08-20T07:31:56.551Z,20.80
2022-08-20T07:34:25.639Z,21.07
2022-08-20T07:36:53.526Z,20.60
2022-08-20T07:39:22.801Z,20.40
2022-08-20T07:42:03.035Z,20.80
2022-08-20T07:44:31.322Z,23.17
2022-08-20T07:47:00.239Z,21.63
2022-08-20T07:49:29.969Z,21.93
2022-08-20T07:51:57.757Z,22.30
2022-08-20T07:54:25.493Z,22.90
2022-08-20T07:57:04.899Z,21.47
2022-08-20T07:59:33.000Z,21.43
2022-08-20T08:02:00.696Z,20.93
2022-08-20T08:04:29.913Z,22.13
2022-08-20T08:07:00.075Z,23.70
2022-08-20T08:09:29.121Z,23.63
2022-08-20T08:12:00.784Z,21.93
2022-08-20T08:14:32.322Z,24.73
2022-08-20T08:17:04.532Z,24.33
2022-08-20T08:19:38.773Z,25.23
2022-08-20T08:22:09.098Z,23.40
2022-08-20T08:24:36.860Z,24.10
2022-08-20T08:27:05.111Z,40.90
2022-08-20T08:29:32.918Z,23.13
2022-08-20T08:32:11.129Z,23.47
2022-08-20T08:34:41.281Z,24.83
2022-08-20T08:37:09.109Z,24.30
2022-08-20T08:39:36.902Z,24.73
2022-08-20T08:42:30.740Z,24.13
2022-08-20T08:44:59.635Z,25.20
2022-08-20T08:47:32.037Z,24.40
2022-08-20T08:50:04.385Z,24.40
2022-08-20T08:52:41.615Z,24.17
2022-08-20T08:55:23.412Z,22.60
2022-08-20T08:57:54.921Z,23.23
2022-08-20T09:00:23.936Z,22.83
2022-08-20T09:02:57.291Z,22.07
2022-08-20T09:05:32.848Z,21.67
2022-08-20T09:08:04.550Z,22.50
2022-08-20T09:10:32.270Z,23.83
2022-08-20T09:13:01.487Z,24.10
2022-08-20T09:15:29.295Z,23.20
2022-08-20T09:17:57.447Z,25.03
2022-08-20T09:20:59.052Z,24.13
2022-08-20T09:23:26.922Z,24.60
2022-08-20T09:25:54.885Z,23.03
2022-08-20T09:28:22.795Z,24.60
2022-08-20T09:30:52.375Z,23.97
2022-08-20T09:33:20.386Z,25.67
2022-08-20T09:35:49.596Z,25.17
2022-08-20T09:38:17.436Z,25.27
2022-08-20T09:40:45.496Z,25.47
2022-08-20T09:43:13.299Z,31.37
2022-08-20T09:45:41.206Z,25.83
2022-08-20T09:48:10.398Z,26.27
2022-08-20T09:50:42.017Z,24.47
2022-08-20T09:53:11.892Z,25.07
2022-08-20T09:55:42.595Z,23.70
2022-08-20T09:58:18.733Z,24.10
2022-08-20T10:00:46.797Z,24.27
2022-08-20T10:03:15.298Z,25.10
2022-08-20T10:05:43.184Z,21.03
2022-08-20T10:08:13.489Z,21.97
2022-08-20T10:10:41.387Z,20.70
2022-08-20T10:13:09.298Z,22.67
2022-08-20T10:15:43.839Z,21.47
2022-08-20T10:18:12.601Z,20.10
2022-08-20T10:20:40.657Z,21.03
2022-08-20T10:23:08.444Z,22.93
2022-08-20T10:25:37.821Z,21.20
2022-08-20T10:28:06.904Z,21.80
2022-08-20T10:30:34.915Z,21.80
2022-08-20T10:33:03.099Z,20.23
2022-08-20T10:35:31.099Z,19.40
2022-08-20T10:37:58.960Z,19.77
2022-08-20T10:40:27.121Z,18.57
2022-08-20T10:42:56.271Z,18.43
2022-08-20T10:45:25.440Z,17.80
2022-08-20T10:47:53.364Z,17.47
2022-08-20T10:50:21.222Z,17.47
2022-08-20T10:52:49.009Z,15.83
2022-08-20T10:55:17.463Z,16.17
2022-08-20T10:57:45.909Z,15.90
2022-08-20T11:00:19.925Z,13.93
2022-08-20T11:02:47.727Z,14.80
2022-08-20T11:05:15.881Z,13.37
2022-08-20T11:07:55.423Z,14.40
2022-08-20T11:10:26.317Z,13.30
2022-08-20T11:12:54.071Z,12.23
2022-08-20T11:15:24.659Z,12.30
2022-08-20T11:17:53.077Z,12.83
2022-08-20T11:20:23.642Z,12.23
2022-08-20T11:22:51.556Z,13.10
2022-08-20T11:25:20.071Z,12.63
2022-08-20T11:27:50.702Z,11.73
2022-08-20T11:30:22.518Z,12.83
2022-08-20T11:32:51.725Z,12.43
2022-08-20T11:38:09.477Z,12.97
2022-08-20T11:40:37.322Z,11.00
2022-08-20T11:43:20.812Z,9.43
2022-08-20T11:45:52.341Z,9.13
2022-08-20T11:48:22.386Z,9.87
2022-08-20T11:50:50.818Z,8.40
2022-08-20T11:53:18.627Z,8.57
2022-08-20T11:55:51.942Z,11.80
2022-08-20T11:58:20.793Z,8.80
2022-08-20T12:00:51.103Z,8.90
2022-08-20T12:03:18.935Z,9.60
2022-08-20T12:05:49.130Z,8.90
2022-08-20T12:08:26.795Z,8.87
2022-08-20T12:10:57.823Z,9.60
2022-08-20T12:13:47.174Z,8.80
2022-08-20T12:16:14.399Z,8.47
2022-08-20T12:18:42.199Z,10.37
2022-08-20T12:21:11.373Z,8.80
2022-08-20T12:23:39.378Z,8.07
2022-08-20T12:26:07.507Z,8.10
2022-08-20T12:28:35.268Z,8.07
2022-08-20T12:31:03.125Z,6.77
2022-08-20T12:33:31.035Z,7.60
2022-08-20T12:35:59.282Z,7.87
2022-08-20T12:38:28.462Z,7.30
2022-08-20T12:40:56.336Z,7.20
2022-08-20T12:43:25.124Z,7.33
2022-08-20T12:45:53.550Z,7.50
2022-08-20T12:48:21.811Z,7.87
2022-08-20T12:50:52.719Z,6.83
2022-08-20T12:53:20.710Z,7.30
2022-08-20T12:55:49.818Z,7.37
2022-08-20T12:58:17.499Z,7.63
2022-08-20T13:00:50.796Z,6.63
2022-08-20T13:03:19.966Z,7.40
2022-08-20T13:05:47.888Z,6.30
2022-08-20T13:08:17.606Z,5.73
2022-08-20T13:10:46.275Z,6.00
2022-08-20T13:13:24.757Z,5.07
2022-08-20T13:15:52.571Z,6.10
2022-08-20T13:18:20.730Z,7.23
2022-08-20T13:20:48.808Z,6.33
2022-08-20T13:23:16.698Z,5.77
2022-08-20T13:25:44.533Z,6.40
2022-08-20T13:28:16.063Z,7.40
2022-08-20T13:30:45.358Z,6.37
2022-08-20T13:33:13.182Z,6.80
2022-08-20T13:35:40.956Z,6.63
2022-08-20T13:38:08.889Z,6.73
2022-08-20T13:40:36.828Z,6.50
2022-08-20T13:43:07.105Z,7.73
2022-08-20T13:45:36.213Z,7.83
2022-08-20T13:48:06.330Z,8.20
2022-08-20T13:50:36.613Z,9.40
2022-08-20T13:53:04.741Z,9.50
2022-08-20T13:55:35.445Z,8.93
2022-08-20T13:58:07.909Z,10.40
2022-08-20T14:00:36.263Z,10.00
2022-08-20T14:03:06.840Z,10.50
2022-08-20T14:05:36.195Z,11.03
2022-08-20T14:08:10.449Z,11.33
2022-08-20T14:10:38.955Z,11.83
2022-08-20T14:13:11.174Z,11.17
2022-08-20T14:15:41.632Z,13.37
2022-08-20T14:18:10.822Z,13.83
2022-08-20T14:20:38.994Z,14.27
2022-08-20T14:23:07.022Z,13.37
2022-08-20T14:25:35.634Z,14.97
2022-08-20T14:28:11.274Z,13.97
2022-08-20T14:30:39.214Z,15.53
2022-08-20T14:33:07.373Z,14.60
2022-08-20T14:35:37.011Z,13.97
2022-08-20T14:38:05.353Z,12.93
2022-08-20T14:40:34.044Z,13.93
2022-08-20T14:43:03.273Z,13.40
2022-08-20T14:45:31.122Z,12.93
2022-08-20T14:47:59.534Z,14.33
2022-08-20T14:50:29.489Z,13.37
2022-08-20T14:52:59.613Z,15.20
2022-08-20T14:55:30.602Z,13.23
2022-08-20T14:57:58.531Z,13.07
2022-08-20T15:00:28.819Z,12.80
2022-08-20T15:02:57.215Z,11.87
2022-08-20T15:05:25.182Z,12.10
2022-08-20T15:07:54.164Z,12.17
2022-08-20T15:10:27.766Z,12.83
2022-08-20T15:12:56.043Z,13.03
2022-08-20T15:15:25.304Z,12.60
2022-08-20T15:17:56.025Z,12.70
2022-08-20T15:20:26.958Z,13.93
2022-08-20T15:22:55.185Z,12.77
2022-08-20T15:25:36.913Z,12.73
2022-08-20T15:28:06.670Z,12.77
2022-08-20T15:30:34.656Z,12.77
2022-08-20T15:33:03.078Z,14.43
2022-08-20T15:35:31.227Z,13.17
2022-08-20T15:38:00.081Z,13.00
2022-08-20T15:40:32.713Z,13.97
2022-08-20T15:43:02.538Z,14.50
2022-08-20T15:45:30.488Z,14.63
2022-08-20T15:48:07.564Z,13.73
2022-08-20T15:50:51.447Z,17.37
2022-08-20T15:53:27.695Z,15.43
2022-08-20T15:56:04.490Z,15.53
2022-08-20T15:58:38.651Z,16.10
2022-08-20T16:01:24.599Z,17.23
2022-08-20T16:04:35.085Z,15.07
2022-08-20T16:07:11.203Z,15.13
2022-08-20T16:09:51.804Z,15.10
2022-08-20T16:12:42.513Z,14.93
2022-08-20T16:15:13.060Z,15.77
2022-08-20T16:17:45.502Z,16.87
2022-08-20T16:20:21.687Z,16.80
2022-08-20T16:22:50.159Z,17.57
2022-08-20T16:25:22.828Z,16.67
2022-08-20T16:28:04.849Z,17.63
2022-08-20T16:30:42.769Z,16.70
2022-08-20T16:33:19.915Z,18.33
2022-08-20T16:35:55.221Z,15.77
2022-08-20T16:38:32.320Z,15.47
2022-08-20T16:41:08.511Z,15.53
2022-08-20T16:43:44.846Z,15.80
2022-08-20T16:46:18.031Z,17.03
2022-08-20T16:48:52.592Z,17.13
2022-08-20T16:51:37.318Z,17.03
2022-08-20T16:54:05.691Z,25.73
2022-08-20T16:56:35.949Z,18.47
2022-08-20T16:59:06.772Z,17.97
2022-08-20T17:01:35.019Z,18.87
2022-08-20T17:04:02.962Z,16.77
2022-08-20T17:06:36.932Z,16.97
2022-08-20T17:09:09.494Z,19.10
2022-08-20T17:11:38.367Z,17.67
2022-08-20T17:14:12.385Z,17.60
2022-08-20T17:16:46.702Z,17.23
2022-08-20T17:19:20.057Z,16.47
2022-08-20T17:21:50.957Z,17.70
2022-08-20T17:24:26.166Z,18.47
2022-08-20T17:26:59.991Z,17.73
2022-08-20T17:29:31.790Z,16.30
2022-08-20T17:32:01.405Z,17.17
2022-08-20T17:34:33.165Z,18.50
2022-08-20T17:37:06.754Z,17.30
2022-08-20T17:39:34.935Z,16.90
2022-08-20T17:42:08.110Z,17.27
2022-08-20T17:44:46.363Z,16.60
2022-08-20T17:47:21.164Z,17.63
2022-08-20T17:50:02.274Z,18.10
2022-08-20T17:52:37.846Z,17.80
2022-08-20T17:55:07.188Z,16.57
2022-08-20T17:57:40.105Z,18.00
2022-08-20T18:00:14.387Z,17.57
2022-08-20T18:02:42.285Z,16.83
2022-08-20T18:05:17.048Z,17.77
2022-08-20T18:07:59.670Z,18.77
2022-08-20T18:10:28.754Z,18.47
2022-08-20T18:13:02.839Z,17.47
2022-08-20T18:15:36.885Z,18.17
2022-08-20T18:18:18.876Z,17.27
2022-08-20T18:21:22.228Z,18.90
2022-08-20T18:23:55.464Z,14.43
2022-08-20T18:26:29.618Z,12.90
2022-08-20T18:29:03.877Z,22.73
2022-08-20T18:31:41.837Z,10.63
2022-08-20T18:34:14.849Z,9.03
2022-08-20T18:36:43.041Z,8.60
2022-08-20T18:39:24.536Z,9.00
2022-08-20T18:42:07.376Z,9.77
2022-08-20T18:44:41.874Z,9.30
2022-08-20T18:47:24.863Z,9.40
2022-08-20T18:50:15.855Z,8.53
2022-08-20T18:52:47.961Z,8.67
2022-08-20T18:55:29.746Z,8.27
2022-08-20T18:58:01.764Z,6.87
2022-08-20T19:00:37.691Z,7.40
2022-08-20T19:03:17.751Z,7.30
2022-08-20T19:06:09.902Z,7.40
2022-08-20T19:08:49.539Z,7.17
2022-08-20T19:11:58.581Z,10.53
2022-08-20T19:14:53.779Z,7.37
2022-08-20T19:17:31.315Z,6.47
2022-08-20T19:20:05.774Z,6.60
2022-08-20T19:22:35.257Z,5.90
2022-08-20T19:25:03.067Z,6.47
2022-08-20T19:27:31.985Z,6.10
2022-08-20T19:29:59.834Z,7.33
2022-08-20T19:32:31.104Z,7.17
2022-08-20T19:35:01.428Z,7.13
2022-08-20T19:37:39.882Z,7.83
2022-08-20T19:40:28.365Z,7.93
2022-08-20T19:42:59.118Z,9.00
2022-08-20T19:45:31.983Z,8.60
2022-08-20T19:48:14.446Z,8.63
2022-08-20T19:50:51.744Z,7.67
2022-08-20T19:53:30.607Z,7.37
2022-08-20T19:56:02.039Z,7.17
2022-08-20T19:58:31.515Z,11.47
2022-08-20T20:01:00.325Z,7.90
2022-08-20T20:03:30.776Z,7.00
2022-08-20T20:06:02.423Z,7.30
2022-08-20T20:08:41.014Z,6.90
2022-08-20T20:11:10.273Z,8.37
2022-08-20T20:13:39.582Z,7.33
2022-08-20T20:16:08.593Z,7.47
2022-08-20T20:18:40.491Z,15.33
2022-08-20T20:21:16.219Z,7.70
2022-08-20T20:23:55.607Z,7.43
2022-08-20T20:26:24.243Z,8.00
2022-08-20T20:28:55.012Z,7.67
2022-08-20T20:31:26.122Z,8.33
2022-08-20T20:33:56.504Z,8.03
2022-08-20T20:36:37.262Z,7.93
2022-08-20T20:39:13.744Z,10.23
2022-08-20T20:41:52.519Z,8.73
2022-08-20T20:44:22.508Z,9.00
2022-08-20T20:46:54.282Z,9.03
2022-08-20T20:49:25.044Z,8.90
2022-08-20T20:52:00.269Z,8.97
2022-08-20T20:54:40.571Z,8.27
2022-08-20T20:57:10.362Z,10.03
2022-08-20T20:59:38.630Z,9.17
2022-08-20T21:02:06.551Z,8.17
2022-08-20T21:04:34.487Z,8.40
2022-08-20T21:07:08.673Z,8.67
2022-08-20T21:09:39.330Z,8.87
2022-08-20T21:12:09.512Z,8.87
2022-08-20T21:14:38.619Z,9.13
2022-08-20T21:17:09.114Z,9.33
2022-08-20T21:19:40.244Z,8.73
2022-08-20T21:22:13.228Z,8.90
2022-08-20T21:24:42.504Z,8.47
2022-08-20T21:27:12.599Z,9.27
2022-08-20T21:29:40.483Z,8.83
2022-08-20T21:32:08.911Z,7.33
2022-08-20T21:34:40.457Z,8.63
2022-08-20T21:37:08.232Z,8.57
2022-08-20T21:39:36.199Z,8.10
2022-08-20T21:42:21.065Z,9.03
2022-08-20T21:44:57.608Z,7.93
2022-08-20T21:47:26.217Z,7.13
2022-08-20T21:49:54.514Z,16.63
2022-08-20T21:52:22.563Z,6.97
2022-08-20T21:54:50.223Z,6.93
2022-08-20T21:57:21.834Z,7.07
2022-08-20T21:59:50.718Z,6.20
2022-08-20T22:02:19.552Z,6.20
2022-08-20T22:04:47.305Z,6.10
2022-08-20T22:07:16.774Z,6.00
2022-08-20T22:09:44.442Z,5.60
2022-08-20T22:12:16.919Z,6.37
2022-08-20T22:14:46.314Z,5.80
2022-08-20T22:17:14.369Z,5.93
2022-08-20T22:19:42.254Z,5.43
2022-08-20T22:22:11.296Z,6.13
2022-08-20T22:24:39.309Z,5.77
2022-08-20T22:27:08.423Z,6.90
2022-08-20T22:29:36.168Z,6.47
2022-08-20T22:32:06.717Z,6.20
2022-08-20T22:34:36.161Z,6.63
2022-08-20T22:37:04.940Z,5.53
2022-08-20T22:39:32.659Z,6.90
2022-08-20T22:42:00.437Z,5.63
2022-08-20T22:44:28.380Z,6.67
2022-08-20T22:46:59.703Z,5.87
2022-08-20T22:49:31.607Z,5.67
2022-08-20T22:51:59.645Z,12.67
2022-08-20T22:54:28.248Z,6.07
2022-08-20T22:56:56.612Z,5.83
2022-08-20T22:59:24.966Z,5.30
2022-08-20T23:01:53.604Z,5.80
2022-08-20T23:04:26.209Z,6.30
2022-08-20T23:06:57.341Z,5.03
2022-08-20T23:09:25.919Z,6.00
2022-08-20T23:11:54.090Z,6.47
2022-08-20T23:14:22.617Z,5.50
2022-08-20T23:17:00.319Z,5.50
2022-08-20T23:19:28.487Z,5.37
2022-08-20T23:21:57.645Z,5.60
2022-08-20T23:24:25.900Z,6.03
2022-08-20T23:26:54.108Z,8.23
2022-08-20T23:29:25.506Z,5.63
2022-08-20T23:31:54.508Z,5.83
2022-08-20T23:34:22.237Z,6.20
2022-08-20T23:36:50.332Z,5.50
2022-08-20T23:39:19.720Z,5.77
2022-08-20T23:41:48.062Z,5.60
2022-08-20T23:44:25.782Z,5.43
2022-08-20T23:46:55.853Z,5.60
2022-08-20T23:49:23.553Z,5.83
2022-08-20T23:51:51.438Z,5.33
2022-08-20T23:54:20.516Z,5.73
2022-08-20T23:56:48.576Z,5.63
2022-08-20T23:59:16.194Z,5.23
